Time;durP1;ratioP1;P1;durP2;ratioP2;P2;SDS_P1;SDS_P2;PMS_P1;PMS_P2;Temp;Humidity;BMP_temperature;BMP_pressure;BME280_temperature;BME280_humidity;BME280_pressure;Samples;Min_cycle;Max_cycle;Signal;HPM_P1;HPM_P2
2022/04/07 00:00:48;;;;;;;0.80;0.80;;;11.80;99.90;;;;;;5061648;28;20202;-64
2022/04/07 00:03:16;;;;;;;0.70;0.70;;;11.70;99.90;;;;;;5062039;28;20204;-64
2022/04/07 00:05:43;;;;;;;0.80;0.80;;;11.70;99.90;;;;;;5061331;28;20669;-63
2022/04/07 00:08:10;;;;;;;0.90;0.90;;;11.70;99.90;;;;;;5055573;22;20236;-68
2022/04/07 00:10:39;;;;;;;0.50;0.50;;;11.60;99.90;;;;;;5030749;28;20219;-67
2022/04/07 00:13:06;;;;;;;0.60;0.60;;;11.60;99.90;;;;;;5043314;28;20208;-67
2022/04/07 00:15:34;;;;;;;0.70;0.70;;;11.60;99.90;;;;;;5040987;28;20208;-67
2022/04/07 00:18:01;;;;;;;0.70;0.70;;;11.60;99.90;;;;;;5044235;28;20251;-68
2022/04/07 00:20:29;;;;;;;0.70;0.70;;;11.70;99.90;;;;;;5042554;28;20197;-67
2022/04/07 00:22:57;;;;;;;0.50;0.50;;;11.70;99.90;;;;;;5044371;28;20208;-68
2022/04/07 00:25:25;;;;;;;0.40;0.40;;;11.70;99.90;;;;;;5038454;28;20200;-67
2022/04/07 00:27:53;;;;;;;0.53;0.53;;;11.70;99.90;;;;;;5041564;28;20305;-67
2022/04/07 00:30:21;;;;;;;0.40;0.40;;;11.60;99.90;;;;;;5041400;28;20220;-68
2022/04/07 00:32:49;;;;;;;0.53;0.53;;;11.70;99.90;;;;;;5041746;28;20674;-66
2022/04/07 00:35:16;;;;;;;0.73;0.73;;;11.70;99.90;;;;;;5040977;28;20238;-65
2022/04/07 00:37:44;;;;;;;0.50;0.50;;;11.80;99.90;;;;;;5038325;28;20633;-70
2022/04/07 00:40:12;;;;;;;0.40;0.40;;;11.80;99.90;;;;;;5037146;28;20236;-67
2022/04/07 00:42:45;;;;;;;0.40;0.40;;;11.70;99.90;;;;;;5042136;28;20287;-68
2022/04/07 00:45:14;;;;;;;0.43;0.43;;;11.80;99.90;;;;;;5039780;28;20208;-68
2022/04/07 00:47:42;;;;;;;0.40;0.40;;;11.90;99.90;;;;;;5040315;28;20612;-68
2022/04/07 00:50:10;;;;;;;0.30;0.30;;;11.90;99.90;;;;;;5041880;28;20224;-66
2022/04/07 00:52:40;;;;;;;0.40;0.40;;;11.80;99.90;;;;;;5042269;28;20204;-68
2022/04/07 00:55:08;;;;;;;0.50;0.50;;;11.90;99.90;;;;;;5045422;28;20259;-67
2022/04/07 00:57:36;;;;;;;0.30;0.30;;;11.80;99.90;;;;;;5049294;28;20215;-66
2022/04/07 01:00:05;;;;;;;0.40;0.40;;;11.90;99.90;;;;;;5064634;28;20192;-70
2022/04/07 01:02:43;;;;;;;0.33;0.33;;;11.80;99.90;;;;;;5059361;28;20203;-70
2022/04/07 01:05:18;;;;;;;0.57;0.50;;;11.80;99.90;;;;;;5059810;28;20224;-70
2022/04/07 01:07:56;;;;;;;0.30;0.30;;;11.80;99.90;;;;;;5060098;28;20224;-71
2022/04/07 01:10:29;;;;;;;0.40;0.40;;;11.80;99.90;;;;;;5045067;28;20303;-68
2022/04/07 01:12:58;;;;;;;0.37;0.37;;;11.90;99.90;;;;;;5038426;28;20200;-67
2022/04/07 01:15:38;;;;;;;0.30;0.30;;;11.90;99.90;;;;;;5037724;28;20195;-68
2022/04/07 01:18:07;;;;;;;0.30;0.30;;;11.90;99.90;;;;;;5040634;28;20232;-68
2022/04/07 01:20:34;;;;;;;0.20;0.20;;;11.90;99.90;;;;;;5037851;28;20210;-68
2022/04/07 01:23:01;;;;;;;0.30;0.30;;;11.80;99.90;;;;;;5040270;28;20236;-67
2022/04/07 01:25:30;;;;;;;0.30;0.30;;;11.90;99.90;;;;;;5036534;28;20297;-66
2022/04/07 01:27:57;;;;;;;0.40;0.40;;;11.80;99.90;;;;;;5037337;28;20216;-68
2022/04/07 01:30:24;;;;;;;0.53;0.53;;;11.80;99.90;;;;;;5037394;28;20313;-68
2022/04/07 01:32:54;;;;;;;0.40;0.40;;;11.80;99.90;;;;;;5037619;28;20295;-68
2022/04/07 01:35:22;;;;;;;0.40;0.40;;;11.80;99.90;;;;;;5042307;28;20654;-68
2022/04/07 01:37:51;;;;;;;0.40;0.40;;;11.90;99.90;;;;;;5041757;28;20232;-68
2022/04/07 01:40:22;;;;;;;0.30;0.30;;;11.80;99.90;;;;;;5038548;28;20203;-66
2022/04/07 01:42:53;;;;;;;0.30;0.30;;;11.80;99.90;;;;;;5034823;28;20295;-67
2022/04/07 01:45:21;;;;;;;0.30;0.30;;;11.80;99.90;;;;;;5043044;28;20230;-66
2022/04/07 01:47:50;;;;;;;0.20;0.20;;;11.70;99.90;;;;;;5031415;28;20273;-67
2022/04/07 01:50:20;;;;;;;0.30;0.30;;;11.80;99.90;;;;;;5026553;28;20632;-69
2022/04/07 01:52:48;;;;;;;0.30;0.30;;;11.80;99.90;;;;;;5030160;28;20698;-68
2022/04/07 01:55:16;;;;;;;0.40;0.40;;;11.80;99.90;;;;;;5041500;28;20195;-67
2022/04/07 01:57:44;;;;;;;0.30;0.30;;;11.80;99.90;;;;;;5031743;28;20224;-70
2022/04/07 02:00:14;;;;;;;0.40;0.40;;;11.80;99.90;;;;;;5032712;28;20286;-69
2022/04/07 02:02:41;;;;;;;0.20;0.20;;;11.80;99.90;;;;;;5040395;28;20209;-69
2022/04/07 02:05:11;;;;;;;0.43;0.20;;;11.80;99.90;;;;;;5042503;28;20570;-67
2022/04/07 02:07:39;;;;;;;0.30;0.30;;;11.80;99.90;;;;;;5033733;28;20312;-68
2022/04/07 02:10:07;;;;;;;0.20;0.20;;;11.80;99.90;;;;;;5042852;28;20307;-69
2022/04/07 02:12:36;;;;;;;0.30;0.30;;;11.80;99.90;;;;;;5037662;28;20208;-66
2022/04/07 02:15:04;;;;;;;0.30;0.30;;;11.80;99.90;;;;;;5031263;28;20213;-67
2022/04/07 02:17:32;;;;;;;0.40;0.40;;;11.80;99.90;;;;;;5035704;28;20789;-68
2022/04/07 02:20:00;;;;;;;0.30;0.30;;;11.70;99.90;;;;;;5040533;28;20200;-67
2022/04/07 02:22:28;;;;;;;0.97;0.30;;;11.70;99.90;;;;;;5042159;28;20685;-68
2022/04/07 02:24:56;;;;;;;0.30;0.30;;;11.70;99.90;;;;;;5046317;28;20208;-68
2022/04/07 02:27:23;;;;;;;0.23;0.23;;;11.70;99.90;;;;;;5039831;28;20255;-69
2022/04/07 02:29:50;;;;;;;0.20;0.20;;;11.80;99.90;;;;;;5036204;28;20316;-67
2022/04/07 02:32:16;;;;;;;0.33;0.33;;;11.80;99.90;;;;;;5040025;28;20295;-67
2022/04/07 02:34:45;;;;;;;0.30;0.30;;;11.80;99.90;;;;;;5034047;28;20299;-69
2022/04/07 02:37:12;;;;;;;0.20;0.20;;;11.80;99.90;;;;;;5040187;28;20261;-69
2022/04/07 02:39:39;;;;;;;0.20;0.20;;;11.80;99.90;;;;;;5040566;28;20285;-67
2022/04/07 02:42:06;;;;;;;0.20;0.20;;;11.80;99.90;;;;;;5029836;28;20215;-67
2022/04/07 02:44:33;;;;;;;0.20;0.20;;;11.80;99.90;;;;;;5034427;28;20223;-68
2022/04/07 02:47:00;;;;;;;0.33;0.33;;;11.80;99.90;;;;;;5042477;28;20222;-68
2022/04/07 02:49:27;;;;;;;0.30;0.30;;;11.80;99.90;;;;;;5040092;28;20238;-69
2022/04/07 02:51:55;;;;;;;0.40;0.40;;;11.80;99.90;;;;;;5042196;28;20298;-67
2022/04/07 02:54:22;;;;;;;0.20;0.20;;;11.80;99.90;;;;;;5041374;28;20370;-68
2022/04/07 02:56:49;;;;;;;0.25;0.22;;;11.80;99.90;;;;;;5048074;28;20635;-69
2022/04/07 02:59:16;;;;;;;0.40;0.40;;;11.80;99.90;;;;;;5048742;28;20285;-70
2022/04/07 03:01:43;;;;;;;0.43;0.43;;;11.80;99.90;;;;;;5058590;28;20200;-70
2022/04/07 03:04:11;;;;;;;0.40;0.40;;;11.80;99.90;;;;;;5050619;28;20204;-69
2022/04/07 03:06:37;;;;;;;0.50;0.50;;;11.80;99.90;;;;;;5044607;28;20232;-68
2022/04/07 03:09:06;;;;;;;0.63;0.40;;;11.80;99.90;;;;;;5042856;28;20328;-69
2022/04/07 03:11:33;;;;;;;0.30;0.30;;;11.80;99.90;;;;;;5038126;28;20236;-67
2022/04/07 03:13:59;;;;;;;0.30;0.30;;;11.80;99.90;;;;;;5035964;28;20243;-68
2022/04/07 03:16:26;;;;;;;0.37;0.37;;;11.80;99.90;;;;;;5038086;28;20207;-68
2022/04/07 03:18:53;;;;;;;1.87;0.40;;;11.80;99.90;;;;;;5039121;28;20221;-66
2022/04/07 03:21:20;;;;;;;0.40;0.40;;;11.80;99.90;;;;;;5036642;28;20216;-70
2022/04/07 03:23:47;;;;;;;0.30;0.30;;;11.80;99.90;;;;;;5038088;28;20296;-69
2022/04/07 03:26:15;;;;;;;0.30;0.30;;;11.70;99.90;;;;;;5042176;28;20210;-70
2022/04/07 03:28:42;;;;;;;0.33;0.33;;;11.80;99.90;;;;;;5045333;28;20318;-69
2022/04/07 03:31:09;;;;;;;0.43;0.43;;;11.80;99.90;;;;;;5041493;28;20314;-68
2022/04/07 03:33:36;;;;;;;0.40;0.40;;;11.80;99.90;;;;;;5034480;28;20295;-68
2022/04/07 03:36:03;;;;;;;0.30;0.30;;;11.80;99.90;;;;;;5039293;28;20230;-68
2022/04/07 03:38:30;;;;;;;0.40;0.40;;;11.80;99.90;;;;;;5044664;28;20239;-68
2022/04/07 03:40:57;;;;;;;0.40;0.40;;;11.70;99.90;;;;;;5034018;28;20301;-68
2022/04/07 03:43:25;;;;;;;0.40;0.40;;;11.70;99.90;;;;;;5040630;28;20296;-67
2022/04/07 03:45:52;;;;;;;0.20;0.20;;;11.70;99.90;;;;;;5048127;28;20227;-67
2022/04/07 03:48:20;;;;;;;0.40;0.40;;;11.70;99.90;;;;;;5047819;28;20232;-67
2022/04/07 03:50:47;;;;;;;0.50;0.50;;;11.70;99.90;;;;;;5045436;28;20740;-68
2022/04/07 03:53:13;;;;;;;0.20;0.20;;;11.70;99.90;;;;;;5037318;28;20619;-67
2022/04/07 03:55:40;;;;;;;0.50;0.50;;;11.70;99.90;;;;;;5042315;28;20584;-69
2022/04/07 03:58:07;;;;;;;0.20;0.20;;;11.80;99.90;;;;;;5036187;28;20267;-68
2022/04/07 04:00:35;;;;;;;0.30;0.30;;;11.80;99.90;;;;;;5033834;28;20208;-67
2022/04/07 04:03:02;;;;;;;0.40;0.40;;;11.70;99.90;;;;;;5039447;28;20926;-67
2022/04/07 04:05:29;;;;;;;0.23;0.23;;;11.70;99.90;;;;;;5042775;28;20207;-69
2022/04/07 04:07:56;;;;;;;0.20;0.20;;;11.70;99.90;;;;;;5038823;28;20267;-68
2022/04/07 04:10:24;;;;;;;0.30;0.30;;;11.70;99.90;;;;;;5038572;28;20220;-68
2022/04/07 04:12:51;;;;;;;0.20;0.20;;;11.80;99.90;;;;;;5038735;28;20211;-68
2022/04/07 04:15:18;;;;;;;0.40;0.40;;;11.80;99.90;;;;;;5037457;28;20316;-67
2022/04/07 04:17:46;;;;;;;0.20;0.20;;;11.80;99.90;;;;;;5038972;28;20658;-69
2022/04/07 04:20:13;;;;;;;0.20;0.20;;;11.70;99.90;;;;;;5040468;28;20196;-69
2022/04/07 04:22:40;;;;;;;0.30;0.30;;;11.70;99.90;;;;;;5041229;28;20212;-69
2022/04/07 04:25:09;;;;;;;0.13;0.13;;;11.70;99.90;;;;;;5034170;28;20762;-69
2022/04/07 04:27:35;;;;;;;0.30;0.30;;;11.80;99.90;;;;;;5035561;28;20243;-67
2022/04/07 04:30:03;;;;;;;0.30;0.30;;;11.80;99.90;;;;;;5035677;28;21479;-69
2022/04/07 04:32:29;;;;;;;0.10;0.10;;;11.70;99.90;;;;;;5036443;28;20472;-70
2022/04/07 04:34:58;;;;;;;0.90;0.30;;;11.80;99.90;;;;;;5041812;28;20204;-68
2022/04/07 04:37:26;;;;;;;0.30;0.30;;;11.80;99.90;;;;;;5038115;28;20265;-68
2022/04/07 04:39:53;;;;;;;0.30;0.30;;;11.80;99.90;;;;;;5044622;28;20690;-67
2022/04/07 04:42:21;;;;;;;0.20;0.20;;;11.80;99.90;;;;;;5039226;28;20212;-67
2022/04/07 04:44:49;;;;;;;0.20;0.20;;;11.80;99.90;;;;;;5048478;28;20294;-66
2022/04/07 04:47:17;;;;;;;0.30;0.30;;;11.70;99.90;;;;;;5031809;28;20236;-67
2022/04/07 04:49:44;;;;;;;0.30;0.30;;;11.70;99.90;;;;;;5043114;28;20681;-67
2022/04/07 04:52:13;;;;;;;0.20;0.20;;;11.70;99.90;;;;;;5037766;28;20255;-67
2022/04/07 04:54:40;;;;;;;0.10;0.10;;;11.70;99.90;;;;;;5037873;28;20961;-66
2022/04/07 04:57:07;;;;;;;0.20;0.20;;;11.70;99.90;;;;;;5038796;28;20304;-66
2022/04/07 04:59:34;;;;;;;0.20;0.20;;;11.80;99.90;;;;;;5051218;28;20255;-66
2022/04/07 05:02:01;;;;;;;0.10;0.10;;;11.80;99.90;;;;;;5059614;28;20268;-66
2022/04/07 05:04:28;;;;;;;0.30;0.30;;;11.80;99.90;;;;;;5064829;28;20235;-66
2022/04/07 05:06:55;;;;;;;0.30;0.30;;;11.80;99.90;;;;;;5060503;28;20210;-66
2022/04/07 05:09:23;;;;;;;0.40;0.40;;;11.80;99.90;;;;;;5044271;28;20236;-65
2022/04/07 05:11:50;;;;;;;0.20;0.20;;;11.90;99.90;;;;;;5040432;28;20324;-67
2022/04/07 05:14:17;;;;;;;0.30;0.30;;;11.80;99.90;;;;;;5038326;28;20212;-66
2022/04/07 05:16:44;;;;;;;0.10;0.10;;;11.80;99.90;;;;;;5045240;28;20204;-66
2022/04/07 05:19:10;;;;;;;0.20;0.20;;;11.80;99.90;;;;;;5039299;28;20241;-67
2022/04/07 05:21:37;;;;;;;0.17;0.17;;;11.90;99.90;;;;;;5045646;28;20206;-66
2022/04/07 05:24:05;;;;;;;0.10;0.10;;;11.90;99.90;;;;;;5047074;28;20299;-66
2022/04/07 05:26:33;;;;;;;0.40;0.40;;;11.90;99.90;;;;;;5047184;28;20239;-66
2022/04/07 05:29:00;;;;;;;0.30;0.30;;;11.90;99.90;;;;;;5039837;28;20271;-66
2022/04/07 05:31:27;;;;;;;0.20;0.20;;;11.90;99.90;;;;;;5043346;28;20311;-66
2022/04/07 05:33:54;;;;;;;0.20;0.20;;;12.00;99.90;;;;;;5036655;28;20208;-65
2022/04/07 05:36:21;;;;;;;0.27;0.27;;;11.90;99.90;;;;;;5042630;28;20230;-66
2022/04/07 05:38:48;;;;;;;0.40;0.40;;;12.00;99.90;;;;;;5035248;28;20322;-66
2022/04/07 05:41:14;;;;;;;0.20;0.20;;;11.90;99.90;;;;;;5035184;28;20343;-67
2022/04/07 05:43:43;;;;;;;0.10;0.10;;;12.00;99.90;;;;;;5038526;28;20741;-65
2022/04/07 05:46:09;;;;;;;0.20;0.20;;;12.00;99.90;;;;;;5040915;28;20291;-64
2022/04/07 05:48:36;;;;;;;0.10;0.10;;;12.10;99.90;;;;;;5035132;28;20814;-65
2022/04/07 05:51:03;;;;;;;0.20;0.20;;;12.10;99.90;;;;;;5044360;28;20374;-66
2022/04/07 05:53:31;;;;;;;0.43;0.43;;;12.10;99.90;;;;;;5046670;28;20240;-67
2022/04/07 05:55:58;;;;;;;0.20;0.20;;;12.10;99.90;;;;;;5062095;28;21004;-67
2022/04/07 05:58:26;;;;;;;0.53;0.53;;;12.10;99.90;;;;;;5059940;28;20230;-66
2022/04/07 06:00:54;;;;;;;0.40;0.40;;;12.10;99.90;;;;;;5057210;28;20204;-66
2022/04/07 06:03:21;;;;;;;0.20;0.20;;;12.10;99.90;;;;;;5062935;28;20271;-66
2022/04/07 06:05:52;;;;;;;0.20;0.20;;;12.10;99.90;;;;;;5058529;28;20208;-66
2022/04/07 06:08:20;;;;;;;0.10;0.10;;;12.10;99.90;;;;;;5055090;28;20274;-66
2022/04/07 06:10:47;;;;;;;0.10;0.10;;;12.10;99.90;;;;;;5052894;28;20219;-66
2022/04/07 06:13:14;;;;;;;0.20;0.20;;;12.20;99.90;;;;;;5040973;28;20319;-67
2022/04/07 06:15:41;;;;;;;0.20;0.20;;;12.10;99.90;;;;;;5041743;28;20200;-65
2022/04/07 06:18:10;;;;;;;0.20;0.20;;;12.00;99.90;;;;;;5039721;28;20228;-66
2022/04/07 06:20:37;;;;;;;0.23;0.23;;;12.00;99.90;;;;;;5044122;28;20254;-65
2022/04/07 06:23:04;;;;;;;0.30;0.30;;;12.00;99.90;;;;;;5038809;28;20226;-65
2022/04/07 06:25:31;;;;;;;0.30;0.30;;;12.00;99.90;;;;;;5042476;28;20217;-66
2022/04/07 06:27:59;;;;;;;0.20;0.20;;;12.00;99.90;;;;;;5046436;28;20315;-66
2022/04/07 06:30:26;;;;;;;0.23;0.23;;;12.10;99.90;;;;;;5040807;28;20200;-66
2022/04/07 06:32:53;;;;;;;0.30;0.30;;;12.00;99.90;;;;;;5043166;28;20208;-66
2022/04/07 06:35:21;;;;;;;0.23;0.23;;;12.00;99.90;;;;;;5040965;28;20215;-67
2022/04/07 06:37:51;;;;;;;0.40;0.40;;;12.00;99.90;;;;;;5039204;28;20637;-66
2022/04/07 06:40:21;;;;;;;0.30;0.30;;;12.00;99.90;;;;;;5046933;28;20211;-65
2022/04/07 06:42:48;;;;;;;0.27;0.27;;;12.00;99.90;;;;;;5039532;28;20216;-65
2022/04/07 06:45:15;;;;;;;0.20;0.20;;;12.00;99.90;;;;;;5033566;28;20789;-66
2022/04/07 06:47:42;;;;;;;0.23;0.23;;;12.00;99.90;;;;;;5039047;28;20225;-66
2022/04/07 06:50:11;;;;;;;0.32;0.32;;;12.00;99.90;;;;;;5038681;28;20211;-65
2022/04/07 06:52:40;;;;;;;0.53;0.53;;;12.00;99.90;;;;;;5039227;28;20259;-65
2022/04/07 06:55:08;;;;;;;0.23;0.23;;;12.00;99.90;;;;;;5034498;28;20675;-67
2022/04/07 06:57:51;;;;;;;0.30;0.30;;;12.00;99.90;;;;;;5045394;28;20311;-66
2022/04/07 07:00:19;;;;;;;0.30;0.30;;;12.10;99.90;;;;;;5035721;28;20223;-65
2022/04/07 07:02:51;;;;;;;0.40;0.40;;;12.10;99.90;;;;;;5049710;28;20204;-66
2022/04/07 07:05:19;;;;;;;0.43;0.43;;;12.10;99.90;;;;;;5038941;28;20196;-65
2022/04/07 07:07:47;;;;;;;0.60;0.60;;;12.10;99.90;;;;;;5038706;28;20327;-65
2022/04/07 07:10:18;;;;;;;0.83;0.40;;;12.10;99.90;;;;;;5038236;28;20201;-66
2022/04/07 07:12:45;;;;;;;0.57;0.57;;;12.10;99.90;;;;;;5034337;28;20235;-65
2022/04/07 07:15:12;;;;;;;0.50;0.50;;;12.10;99.90;;;;;;5037524;28;20670;-65
2022/04/07 07:17:39;;;;;;;0.40;0.40;;;12.10;99.90;;;;;;5033367;28;20346;-65
2022/04/07 07:20:07;;;;;;;0.23;0.23;;;12.10;99.90;;;;;;5035563;28;20304;-65
2022/04/07 07:22:35;;;;;;;0.50;0.50;;;12.20;99.90;;;;;;5043882;28;20903;-66
2022/04/07 07:25:03;;;;;;;0.40;0.40;;;12.10;99.90;;;;;;5040684;28;20259;-66
2022/04/07 07:27:36;;;;;;;0.30;0.30;;;12.20;99.90;;;;;;5045317;28;20231;-65
2022/04/07 07:30:04;;;;;;;0.50;0.50;;;12.20;99.90;;;;;;5041430;28;20250;-66
2022/04/07 07:32:31;;;;;;;0.63;0.63;;;12.30;99.90;;;;;;5043888;28;20278;-66
2022/04/07 07:34:59;;;;;;;0.30;0.30;;;12.30;99.90;;;;;;5040516;28;20231;-66
2022/04/07 07:37:26;;;;;;;0.33;0.33;;;12.40;99.90;;;;;;5038466;28;20213;-66
2022/04/07 07:39:52;;;;;;;0.40;0.40;;;12.50;99.90;;;;;;5037923;28;20296;-66
2022/04/07 07:42:21;;;;;;;0.47;0.47;;;12.60;99.90;;;;;;5040864;28;20318;-66
2022/04/07 07:44:48;;;;;;;0.20;0.20;;;12.60;99.90;;;;;;5038544;28;20236;-65
2022/04/07 07:47:14;;;;;;;0.33;0.33;;;12.50;99.90;;;;;;5042213;28;20296;-66
2022/04/07 07:49:41;;;;;;;0.30;0.30;;;12.60;99.90;;;;;;5044487;28;20326;-66
2022/04/07 07:52:08;;;;;;;0.40;0.40;;;12.60;99.90;;;;;;5041300;28;20224;-66
2022/04/07 07:54:35;;;;;;;0.50;0.50;;;12.60;99.90;;;;;;5043586;28;20246;-66
2022/04/07 07:57:02;;;;;;;0.33;0.33;;;12.70;99.90;;;;;;5040998;28;20251;-66
2022/04/07 07:59:30;;;;;;;0.30;0.30;;;12.70;99.90;;;;;;5035333;28;20220;-66
2022/04/07 08:01:57;;;;;;;0.10;0.10;;;12.80;99.90;;;;;;5042134;28;20230;-66
2022/04/07 08:04:24;;;;;;;0.30;0.30;;;12.90;99.90;;;;;;5045908;28;20295;-66
2022/04/07 08:06:51;;;;;;;0.97;0.40;;;12.90;99.90;;;;;;5039218;28;20208;-65
2022/04/07 08:09:18;;;;;;;0.50;0.50;;;13.10;99.90;;;;;;5034922;28;20604;-66
2022/04/07 08:11:45;;;;;;;0.40;0.40;;;13.10;99.90;;;;;;5033402;28;20227;-65
2022/04/07 08:14:12;;;;;;;0.40;0.40;;;13.10;99.90;;;;;;5042250;28;20218;-65
2022/04/07 08:16:41;;;;;;;0.40;0.40;;;13.10;99.90;;;;;;5040787;28;20291;-65
2022/04/07 08:19:09;;;;;;;0.30;0.30;;;13.10;99.90;;;;;;5035853;28;20311;-66
2022/04/07 08:21:36;;;;;;;0.30;0.30;;;13.20;99.90;;;;;;5037422;28;20201;-67
2022/04/07 08:24:03;;;;;;;0.20;0.20;;;13.20;99.90;;;;;;5040959;28;20296;-66
2022/04/07 08:26:29;;;;;;;0.20;0.20;;;13.30;99.90;;;;;;5044656;28;20335;-66
2022/04/07 08:28:56;;;;;;;0.30;0.30;;;13.30;99.90;;;;;;5039723;28;20573;-65
2022/04/07 08:31:25;;;;;;;0.20;0.20;;;13.40;99.90;;;;;;5038276;28;22506;-66
2022/04/07 08:33:53;;;;;;;0.20;0.20;;;13.50;99.90;;;;;;5037680;28;20231;-65
2022/04/07 08:36:20;;;;;;;0.50;0.50;;;13.60;99.90;;;;;;5034626;28;20203;-66
2022/04/07 08:38:47;;;;;;;0.30;0.30;;;13.60;99.90;;;;;;5037900;28;20235;-66
2022/04/07 08:41:15;;;;;;;0.30;0.30;;;13.70;99.90;;;;;;5034428;28;20246;-66
2022/04/07 08:43:43;;;;;;;0.27;0.27;;;13.60;99.90;;;;;;5037693;28;20844;-65
2022/04/07 08:46:11;;;;;;;0.20;0.20;;;13.60;99.90;;;;;;5039893;28;20223;-66
2022/04/07 08:48:40;;;;;;;0.10;0.10;;;13.60;99.90;;;;;;5040553;28;20238;-65
2022/04/07 08:51:08;;;;;;;0.37;0.37;;;13.60;99.90;;;;;;5047648;28;20215;-66
2022/04/07 08:53:36;;;;;;;0.22;0.22;;;13.50;99.90;;;;;;5040098;28;20220;-65
2022/04/07 08:56:05;;;;;;;0.37;0.30;;;13.50;99.90;;;;;;5036089;28;20682;-66
2022/04/07 08:58:32;;;;;;;0.30;0.30;;;13.50;99.90;;;;;;5047641;28;20602;-66
2022/04/07 09:01:00;;;;;;;0.30;0.30;;;13.50;99.90;;;;;;5040558;28;20259;-66
2022/04/07 09:03:27;;;;;;;0.03;0.03;;;13.50;99.90;;;;;;5038809;28;20220;-65
2022/04/07 09:05:55;;;;;;;0.40;0.40;;;13.50;99.90;;;;;;5036215;28;20204;-65
2022/04/07 09:08:30;;;;;;;0.33;0.33;;;13.40;99.90;;;;;;5039826;28;20323;-66
2022/04/07 09:10:58;;;;;;;0.30;0.30;;;13.40;99.90;;;;;;5047909;28;20298;-66
2022/04/07 09:13:26;;;;;;;0.40;0.40;;;13.30;99.90;;;;;;5046918;28;20234;-65
2022/04/07 09:15:53;;;;;;;0.30;0.30;;;13.30;99.90;;;;;;5049707;28;20200;-64
2022/04/07 09:18:25;;;;;;;0.40;0.40;;;13.30;99.90;;;;;;5054687;28;20231;-64
2022/04/07 09:20:53;;;;;;;0.30;0.30;;;13.20;99.90;;;;;;5050293;28;20271;-66
2022/04/07 09:23:20;;;;;;;0.30;0.30;;;13.10;99.90;;;;;;5040371;28;20740;-63
2022/04/07 09:25:50;;;;;;;0.27;0.27;;;13.10;99.90;;;;;;5046445;28;20733;-67
2022/04/07 09:28:35;;;;;;;0.40;0.40;;;13.10;99.90;;;;;;5053644;28;20234;-65
2022/04/07 09:31:02;;;;;;;0.30;0.30;;;13.10;99.90;;;;;;5057994;28;20446;-65
2022/04/07 09:33:30;;;;;;;0.60;0.60;;;13.10;99.90;;;;;;5051765;28;20252;-66
2022/04/07 09:36:06;;;;;;;0.40;0.40;;;13.20;99.90;;;;;;5057272;28;20243;-65
2022/04/07 09:38:34;;;;;;;0.30;0.30;;;13.20;99.90;;;;;;5050151;28;20223;-67
2022/04/07 09:41:11;;;;;;;0.30;0.30;;;13.20;99.90;;;;;;5057241;28;20203;-67
2022/04/07 09:43:58;;;;;;;0.17;0.17;;;13.20;99.90;;;;;;5054210;28;20219;-65
2022/04/07 09:46:32;;;;;;;0.17;0.17;;;13.20;99.90;;;;;;5054810;28;20204;-65
2022/04/07 09:49:04;;;;;;;0.30;0.30;;;13.20;99.90;;;;;;5052746;28;20307;-65
2022/04/07 09:51:37;;;;;;;0.30;0.30;;;13.30;99.90;;;;;;5055091;28;20666;-65
2022/04/07 09:54:09;;;;;;;0.20;0.20;;;13.30;99.90;;;;;;5051711;28;20650;-64
2022/04/07 09:56:38;;;;;;;0.40;0.40;;;13.40;99.90;;;;;;5052674;28;20250;-66
2022/04/07 09:59:07;;;;;;;0.23;0.23;;;13.50;99.90;;;;;;5051636;28;20313;-66
2022/04/07 10:01:34;;;;;;;0.20;0.20;;;13.40;99.90;;;;;;5053894;28;20192;-66
2022/04/07 10:04:04;;;;;;;0.40;0.40;;;13.50;99.90;;;;;;5052093;28;20230;-65
2022/04/07 10:06:32;;;;;;;0.17;0.17;;;13.50;99.90;;;;;;5049103;28;20200;-68
2022/04/07 10:09:00;;;;;;;0.33;0.33;;;13.50;99.90;;;;;;5050029;28;20223;-66
2022/04/07 10:11:30;;;;;;;0.27;0.27;;;13.50;99.90;;;;;;5042278;28;20218;-65
2022/04/07 10:13:58;;;;;;;0.40;0.30;;;13.50;99.90;;;;;;5044070;28;20311;-66
2022/04/07 10:16:26;;;;;;;0.37;0.37;;;13.50;99.90;;;;;;5038687;28;20196;-66
2022/04/07 10:18:57;;;;;;;0.33;0.33;;;13.50;99.90;;;;;;5049431;28;20220;-66
2022/04/07 10:21:39;;;;;;;0.30;0.30;;;13.50;99.90;;;;;;5049111;28;20948;-66
2022/04/07 10:24:29;;;;;;;0.23;0.23;;;13.50;99.90;;;;;;5047699;28;20577;-65
2022/04/07 10:26:59;;;;;;;0.17;0.17;;;13.50;99.90;;;;;;5047304;28;20200;-67
2022/04/07 10:29:29;;;;;;;0.30;0.30;;;13.60;99.90;;;;;;5047005;28;20232;-66
2022/04/07 10:32:22;;;;;;;0.10;0.10;;;13.60;99.90;;;;;;5046280;28;20200;-64
2022/04/07 10:34:57;;;;;;;0.20;0.20;;;13.60;99.90;;;;;;5045373;28;20212;-66
2022/04/07 10:37:31;;;;;;;0.30;0.30;;;13.70;99.90;;;;;;5045511;28;20284;-66
2022/04/07 10:40:31;;;;;;;0.43;0.30;;;13.70;99.90;;;;;;5047031;28;20208;-66
2022/04/07 10:43:20;;;;;;;0.57;0.27;;;13.70;99.90;;;;;;5048297;28;20229;-65
2022/04/07 10:45:50;;;;;;;0.10;0.10;;;13.70;99.90;;;;;;5052943;28;20299;-65
2022/04/07 10:48:28;;;;;;;0.20;0.20;;;13.80;99.90;;;;;;5042046;28;20224;-65
2022/04/07 10:50:57;;;;;;;0.30;0.30;;;13.80;99.90;;;;;;5047315;28;20200;-66
2022/04/07 10:53:27;;;;;;;0.20;0.20;;;13.80;99.90;;;;;;5049059;28;20307;-64
2022/04/07 10:56:02;;;;;;;0.17;0.17;;;13.80;99.90;;;;;;5047216;28;20200;-65
2022/04/07 10:58:46;;;;;;;0.10;0.10;;;13.90;99.90;;;;;;5044180;28;20337;-66
2022/04/07 11:01:56;;;;;;;0.10;0.10;;;13.90;99.90;;;;;;5046606;28;20215;-65
2022/04/07 11:04:58;;;;;;;0.93;0.33;;;13.80;99.90;;;;;;5047087;28;20283;-66
2022/04/07 11:07:25;;;;;;;0.00;0.00;;;13.90;99.90;;;;;;5042893;28;20208;-66
2022/04/07 11:10:10;;;;;;;0.20;0.20;;;13.90;99.90;;;;;;5044687;28;20548;-64
2022/04/07 11:12:39;;;;;;;0.37;0.30;;;13.90;99.90;;;;;;5047338;28;20216;-66
2022/04/07 11:15:32;;;;;;;0.10;0.10;;;14.00;99.90;;;;;;5047808;28;20232;-66
2022/04/07 11:18:18;;;;;;;0.40;0.30;;;14.10;99.90;;;;;;5030451;28;20270;-63
2022/04/07 11:21:00;;;;;;;0.22;0.22;;;14.00;99.90;;;;;;5032747;28;20586;-69
2022/04/07 11:23:40;;;;;;;0.27;0.27;;;14.10;99.90;;;;;;5033270;28;20243;-65
2022/04/07 11:26:20;;;;;;;0.47;0.30;;;14.10;99.90;;;;;;5043582;28;20212;-65
2022/04/07 11:29:05;;;;;;;0.20;0.20;;;14.00;99.90;;;;;;5046361;28;20222;-64
2022/04/07 11:31:43;;;;;;;0.40;0.20;;;14.00;99.90;;;;;;5048326;28;20358;-65
2022/04/07 11:35:00;;;;;;;0.20;0.20;;;14.00;99.90;;;;;;5042217;28;20521;-65
2022/04/07 11:37:30;;;;;;;0.47;0.47;;;14.00;99.90;;;;;;5018419;28;20213;-65
2022/04/07 11:39:57;;;;;;;0.43;0.33;;;14.00;99.90;;;;;;5043410;28;20208;-64
2022/04/07 11:42:24;;;;;;;0.23;0.23;;;14.00;99.90;;;;;;5046832;28;20204;-66
2022/04/07 11:44:58;;;;;;;0.10;0.10;;;14.10;99.90;;;;;;5047060;28;20199;-64
2022/04/07 11:47:28;;;;;;;0.20;0.20;;;14.00;99.90;;;;;;5048899;28;20355;-65
2022/04/07 11:49:56;;;;;;;0.40;0.30;;;14.00;99.90;;;;;;5056386;28;20210;-64
2022/04/07 11:52:31;;;;;;;0.93;0.33;;;14.00;99.90;;;;;;5053187;28;20690;-65
2022/04/07 11:55:00;;;;;;;1.03;0.20;;;14.00;99.90;;;;;;5051021;28;20202;-66
2022/04/07 11:57:30;;;;;;;0.20;0.20;;;14.00;99.90;;;;;;5048849;28;20295;-65
2022/04/07 11:59:58;;;;;;;0.30;0.30;;;14.00;99.90;;;;;;5048511;28;20200;-65
2022/04/07 12:02:26;;;;;;;0.30;0.30;;;13.90;99.90;;;;;;5048825;28;20574;-64
2022/04/07 12:04:58;;;;;;;1.00;1.00;;;14.00;99.90;;;;;;5048639;28;20243;-65
2022/04/07 12:07:25;;;;;;;0.20;0.20;;;14.00;99.90;;;;;;5044762;28;20238;-65
2022/04/07 12:09:56;;;;;;;0.30;0.30;;;14.00;99.90;;;;;;5053205;28;20200;-64
2022/04/07 12:12:23;;;;;;;0.10;0.10;;;14.10;99.90;;;;;;5049944;28;20216;-64
2022/04/07 12:14:51;;;;;;;0.20;0.20;;;14.10;99.90;;;;;;5046461;28;20196;-66
2022/04/07 12:17:19;;;;;;;0.23;0.23;;;14.10;99.90;;;;;;5051300;28;20204;-66
2022/04/07 12:19:46;;;;;;;0.20;0.20;;;14.10;99.90;;;;;;5044801;28;20314;-65
2022/04/07 12:22:14;;;;;;;0.40;0.40;;;14.10;99.90;;;;;;5052443;28;20644;-64
2022/04/07 12:25:00;;;;;;;0.10;0.10;;;14.10;99.90;;;;;;5049602;28;20200;-64
2022/04/07 12:27:28;;;;;;;0.20;0.20;;;14.10;99.90;;;;;;5038555;28;20195;-65
2022/04/07 12:29:55;;;;;;;0.10;0.10;;;14.20;99.90;;;;;;5045691;28;20710;-64
2022/04/07 12:32:22;;;;;;;0.20;0.20;;;14.30;99.90;;;;;;5052179;28;20199;-65
2022/04/07 12:34:56;;;;;;;0.20;0.20;;;14.30;99.90;;;;;;5050749;28;20634;-64
2022/04/07 12:37:33;;;;;;;0.30;0.30;;;14.40;99.90;;;;;;5044029;28;20686;-65
2022/04/07 12:40:01;;;;;;;0.30;0.30;;;14.40;99.90;;;;;;5042851;28;20563;-65
2022/04/07 12:42:28;;;;;;;0.50;0.50;;;14.50;99.90;;;;;;5047478;28;20657;-66
2022/04/07 12:45:06;;;;;;;1.40;0.50;;;14.50;99.90;;;;;;5033083;28;20314;-64
2022/04/07 12:47:33;;;;;;;0.20;0.20;;;14.60;99.90;;;;;;5041062;28;20204;-66
2022/04/07 12:50:03;;;;;;;0.40;0.40;;;14.60;99.90;;;;;;5038966;28;20280;-64
2022/04/07 12:52:38;;;;;;;0.83;0.40;;;14.50;99.90;;;;;;5043429;28;20642;-65
2022/04/07 12:55:10;;;;;;;0.10;0.10;;;14.60;99.90;;;;;;5045012;28;20204;-65
2022/04/07 12:57:39;;;;;;;0.40;0.23;;;14.70;99.90;;;;;;5047146;28;20224;-66
2022/04/07 13:00:10;;;;;;;1.07;0.43;;;14.70;99.90;;;;;;5038427;28;20243;-65